Sunlight Express — 3FMK7 — position and weather

sailwx.info

Track history (hours):
 
Tides and Currents Weather Stations Pressure Air Temp Water Temp Dewpoint Dewpoint Depression Visibility Wind Speed Wind Dir Waves Ship Positions

Sunlight Express

Last reported at 2018-Feb-17 19:30 UTC. Time now 2018-Feb-17 19:38 UTC.
Position N 09°31' W 079°54'.

Length 182 m; draft 11.9 m.

Type: Ship. MMSI: 351001000.

Date/timePositionNaut miles runAvg speedWind from/ knotsBaromVisibWave heightAir tempDewpointWater temp
2018-Feb-17 19:30N 09°31' W 079°54'55 9.9
2018-Feb-17 14:00N 10°24' W 079°42'5413.6 080 / 201015.010.8 25.022.027.0
2018-Feb-17 10:00N 11°18' W 079°36'5511.1 050 / 211013.010.8 25.022.027.0
2018-Feb-17 05:00N 12°12' W 079°24'4812.1 050 / 221015.0 5.4 25.022.025.0
2018-Feb-17 01:00N 13°00' W 079°18'   080 / 221015.010.8 25.022.027.0
2018-Feb-12 04:42N 29°20' W 094°40'311.9
2018-Feb-12 04:28N 29°21' W 094°43'9 9.6
2018-Feb-12 03:35N 29°26' W 094°50'110.3
2018-Feb-12 03:30N 29°27' W 094°51'510.3
2018-Feb-12 03:00N 29°32' W 094°53'510.0
2018-Feb-12 02:30N 29°36' W 094°57'5 9.2
2018-Feb-12 02:00N 29°40' W 094°59'4 7.7
2018-Feb-12 01:29N 29°43' W 095°01'3 6.9
2018-Feb-12 01:00N 29°45' W 095°04'3 5.3
2018-Feb-12 00:29N 29°44' W 095°07'1 0.0
2018-Feb-10 02:36N 29°44' W 095°08'0 1.4
2018-Feb-10 02:26N 29°44' W 095°08'2 5.0
2018-Feb-10 01:56N 29°45' W 095°11'3 0.1
2018-Feb-07 22:37N 29°43' W 095°14'0 0.4
2018-Feb-07 22:30N 29°44' W 095°14'0 0.4
2018-Feb-07 22:00N 29°44' W 095°13'3 5.4
2018-Feb-07 21:31N 29°45' W 095°11'  
Track history (hours):
 
Tides and Currents Weather Stations Pressure Air Temp Water Temp Dewpoint Dewpoint Depression Visibility Wind Speed Wind Dir Waves Ship Positions

Sunlight Express

Last reported at 2018-Feb-17 19:30 UTC. Time now 2018-Feb-17 19:38 UTC.
Position N 09°31' W 079°54'.

Length 182 m; draft 11.9 m.

Type: Ship. MMSI: 351001000.

Date/timePositionNaut miles runAvg speedWind from/ knotsBaromVisibWave heightAir tempDewpointWater temp
2018-Feb-17 19:30N 09°31' W 079°54'55 9.9
2018-Feb-17 14:00N 10°24' W 079°42'5413.6 080 / 201015.010.8 25.022.027.0
2018-Feb-17 10:00N 11°18' W 079°36'5511.1 050 / 211013.010.8 25.022.027.0
2018-Feb-17 05:00N 12°12' W 079°24'4812.1 050 / 221015.0 5.4 25.022.025.0
2018-Feb-17 01:00N 13°00' W 079°18'   080 / 221015.010.8 25.022.027.0
2018-Feb-12 04:42N 29°20' W 094°40'311.9
2018-Feb-12 04:28N 29°21' W 094°43'9 9.6
2018-Feb-12 03:35N 29°26' W 094°50'110.3
2018-Feb-12 03:30N 29°27' W 094°51'510.3
2018-Feb-12 03:00N 29°32' W 094°53'510.0
2018-Feb-12 02:30N 29°36' W 094°57'5 9.2
2018-Feb-12 02:00N 29°40' W 094°59'4 7.7
2018-Feb-12 01:29N 29°43' W 095°01'3 6.9
2018-Feb-12 01:00N 29°45' W 095°04'3 5.3
2018-Feb-12 00:29N 29°44' W 095°07'1 0.0
2018-Feb-10 02:36N 29°44' W 095°08'0 1.4
2018-Feb-10 02:26N 29°44' W 095°08'2 5.0
2018-Feb-10 01:56N 29°45' W 095°11'3 0.1
2018-Feb-07 22:37N 29°43' W 095°14'0 0.4
2018-Feb-07 22:30N 29°44' W 095°14'0 0.4
2018-Feb-07 22:00N 29°44' W 095°13'3 5.4
2018-Feb-07 21:31N 29°45' W 095°11'  

Dump ship's entire track history